createdAt,value
2018-06-19T00:00:23.243Z,16.20
2018-06-19T00:02:52.756Z,16.20
2018-06-19T00:05:22.357Z,16.20
2018-06-19T00:07:51.760Z,16.20
2018-06-19T00:10:21.159Z,16.20
2018-06-19T00:12:50.356Z,16.20
2018-06-19T00:15:19.588Z,16.10
2018-06-19T00:17:49.851Z,16.10
2018-06-19T00:20:19.342Z,16.10
2018-06-19T00:22:48.934Z,16.10
2018-06-19T00:25:18.253Z,16.10
2018-06-19T00:27:47.682Z,16.00
2018-06-19T00:30:17.125Z,16.00
2018-06-19T00:32:46.365Z,16.00
2018-06-19T00:35:15.861Z,16.00
2018-06-19T00:37:45.460Z,15.90
2018-06-19T00:40:15.129Z,15.90
2018-06-19T00:42:44.260Z,15.80
2018-06-19T00:45:13.788Z,15.80
2018-06-19T00:47:43.052Z,15.70
2018-06-19T00:50:12.204Z,15.70
2018-06-19T00:52:41.636Z,15.70
2018-06-19T00:55:11.052Z,15.70
2018-06-19T00:57:40.304Z,15.70
2018-06-19T01:00:09.476Z,15.70
2018-06-19T01:02:39.152Z,15.60
2018-06-19T01:05:08.484Z,15.70
2018-06-19T01:07:37.853Z,15.70
2018-06-19T01:10:07.263Z,15.70
2018-06-19T01:12:36.536Z,15.80
2018-06-19T01:15:05.816Z,15.70
2018-06-19T01:17:35.372Z,15.70
2018-06-19T01:20:06.465Z,15.70
2018-06-19T01:22:35.682Z,15.70
2018-06-19T01:27:33.989Z,15.70
2018-06-19T01:30:03.307Z,15.70
2018-06-19T01:32:32.572Z,15.60
2018-06-19T01:35:01.856Z,15.60
2018-06-19T01:37:31.336Z,15.50
2018-06-19T01:40:00.446Z,15.40
2018-06-19T01:42:29.712Z,15.40
2018-06-19T01:44:59.111Z,15.40
2018-06-19T01:47:28.575Z,15.30
2018-06-19T01:49:57.919Z,15.30
2018-06-19T01:52:27.527Z,15.20
2018-06-19T01:54:56.902Z,15.20
2018-06-19T01:57:26.332Z,15.20
2018-06-19T01:59:56.108Z,15.10
2018-06-19T02:02:25.371Z,15.00
2018-06-19T02:04:54.857Z,15.00
2018-06-19T02:07:24.356Z,15.10
2018-06-19T02:09:53.604Z,15.00
2018-06-19T02:12:22.980Z,15.00
2018-06-19T02:14:52.561Z,15.00
2018-06-19T02:17:22.076Z,14.90
2018-06-19T02:19:51.604Z,14.90
2018-06-19T02:22:21.291Z,14.90
2018-06-19T02:24:50.689Z,14.90
2018-06-19T02:27:19.796Z,14.80
2018-06-19T02:29:49.385Z,14.80
2018-06-19T02:32:18.914Z,14.80
2018-06-19T02:34:48.481Z,14.70
2018-06-19T02:37:17.804Z,14.70
2018-06-19T02:39:47.197Z,14.60
2018-06-19T02:42:16.509Z,14.40
2018-06-19T02:44:45.988Z,14.30
2018-06-19T02:47:15.508Z,14.20
2018-06-19T02:49:44.865Z,14.30
2018-06-19T02:52:14.464Z,14.30
2018-06-19T02:54:43.712Z,14.30
2018-06-19T02:57:13.091Z,14.20
2018-06-19T02:59:42.626Z,14.20
2018-06-19T03:02:11.974Z,14.20
2018-06-19T03:04:41.185Z,14.20
2018-06-19T03:07:10.901Z,14.20
2018-06-19T03:09:40.345Z,14.30
2018-06-19T03:12:09.669Z,14.40
2018-06-19T03:14:39.416Z,14.40
2018-06-19T03:17:09.007Z,14.50
2018-06-19T03:19:38.501Z,14.50
2018-06-19T03:22:07.964Z,14.60
2018-06-19T03:24:37.433Z,14.60
2018-06-19T03:27:07.133Z,14.60
2018-06-19T03:29:36.666Z,14.60
2018-06-19T03:32:06.253Z,14.60
2018-06-19T03:34:35.728Z,14.50
2018-06-19T03:37:05.492Z,14.50
2018-06-19T03:39:35.114Z,14.60
2018-06-19T03:42:04.496Z,14.50
2018-06-19T03:44:33.898Z,14.60
2018-06-19T03:47:03.452Z,14.70
2018-06-19T03:49:32.800Z,14.80
2018-06-19T03:52:02.284Z,15.00
2018-06-19T03:54:31.409Z,15.10
2018-06-19T03:57:00.732Z,15.20
2018-06-19T03:59:30.123Z,15.20
2018-06-19T04:01:59.417Z,15.30
2018-06-19T04:04:28.736Z,15.40
2018-06-19T04:09:26.997Z,15.50
2018-06-19T04:11:56.807Z,15.60
2018-06-19T04:14:25.938Z,15.60
2018-06-19T04:16:55.508Z,15.60
2018-06-19T04:19:25.072Z,15.70
2018-06-19T04:21:54.556Z,15.70
2018-06-19T04:24:24.237Z,15.80
2018-06-19T04:26:53.421Z,15.80
2018-06-19T04:29:22.888Z,15.90
2018-06-19T04:31:52.188Z,15.90
2018-06-19T04:34:21.662Z,15.90
2018-06-19T04:36:51.548Z,15.90
2018-06-19T04:39:21.157Z,15.90
2018-06-19T04:41:50.537Z,16.00
2018-06-19T04:44:19.789Z,16.00
2018-06-19T04:46:49.335Z,16.00
2018-06-19T04:49:19.559Z,16.00
2018-06-19T04:51:49.158Z,16.10
2018-06-19T04:54:18.688Z,16.20
2018-06-19T04:56:47.808Z,16.20
2018-06-19T04:59:17.353Z,16.40
2018-06-19T05:01:47.040Z,16.50
2018-06-19T05:04:16.379Z,16.60
2018-06-19T05:06:45.815Z,16.70
2018-06-19T05:09:15.435Z,16.90
2018-06-19T05:11:46.656Z,17.00
2018-06-19T05:14:15.737Z,17.00
2018-06-19T05:16:45.382Z,17.10
2018-06-19T05:19:15.145Z,17.20
2018-06-19T05:21:44.269Z,17.30
2018-06-19T05:24:14.029Z,17.40
2018-06-19T05:26:43.928Z,17.40
2018-06-19T05:29:13.532Z,17.60
2018-06-19T05:31:42.891Z,17.70
2018-06-19T05:34:12.204Z,17.80
2018-06-19T05:36:41.648Z,17.90
2018-06-19T05:39:11.608Z,18.10
2018-06-19T05:41:41.179Z,18.20
2018-06-19T05:44:10.705Z,18.30
2018-06-19T05:46:40.264Z,18.40
2018-06-19T05:49:09.604Z,18.50
2018-06-19T05:51:39.384Z,18.60
2018-06-19T05:54:08.859Z,18.70
2018-06-19T05:56:38.622Z,18.80
2018-06-19T05:59:08.125Z,18.90
2018-06-19T06:01:37.543Z,19.00
2018-06-19T06:04:07.009Z,19.10
2018-06-19T06:06:36.381Z,19.20
2018-06-19T06:09:08.465Z,19.40
2018-06-19T06:11:38.254Z,19.50
2018-06-19T06:14:07.813Z,19.70
2018-06-19T06:16:37.169Z,19.80
2018-06-19T06:19:06.530Z,19.70
2018-06-19T06:21:35.776Z,19.90
2018-06-19T06:24:05.221Z,19.80
2018-06-19T06:26:34.588Z,20.00
2018-06-19T06:29:04.409Z,19.90
2018-06-19T06:31:33.960Z,19.90
2018-06-19T06:34:03.215Z,20.00
2018-06-19T06:36:32.636Z,19.90
2018-06-19T06:39:02.148Z,19.90
2018-06-19T06:41:31.135Z,20.10
2018-06-19T06:44:00.461Z,20.10
2018-06-19T06:46:29.748Z,20.10
2018-06-19T06:48:59.143Z,20.20
2018-06-19T06:51:28.664Z,20.40
2018-06-19T06:53:58.297Z,20.60
2018-06-19T06:56:27.418Z,20.90
2018-06-19T06:58:56.948Z,20.80
2018-06-19T07:01:26.297Z,20.90
2018-06-19T07:03:55.419Z,20.90
2018-06-19T07:06:24.810Z,20.90
2018-06-19T07:08:54.004Z,21.00
2018-06-19T07:11:23.504Z,21.30
2018-06-19T07:13:53.080Z,21.30
2018-06-19T07:16:22.473Z,21.50
2018-06-19T07:18:51.730Z,21.60
2018-06-19T07:21:21.141Z,21.20
2018-06-19T07:23:50.556Z,21.30
2018-06-19T07:26:19.980Z,21.30
2018-06-19T07:28:49.356Z,21.40
2018-06-19T07:31:18.852Z,21.40
2018-06-19T07:33:48.352Z,21.40
2018-06-19T07:36:17.721Z,21.70
2018-06-19T07:38:47.539Z,22.20
2018-06-19T07:41:17.010Z,22.50
2018-06-19T07:43:46.201Z,22.40
2018-06-19T07:46:15.709Z,22.50
2018-06-19T07:48:44.755Z,22.50
2018-06-19T07:51:14.132Z,22.40
2018-06-19T07:53:43.835Z,22.10
2018-06-19T07:56:13.044Z,22.50
2018-06-19T07:58:42.249Z,22.80
2018-06-19T08:01:11.969Z,22.60
2018-06-19T08:03:41.377Z,22.60
2018-06-19T08:06:10.650Z,22.70
2018-06-19T08:08:39.827Z,22.60
2018-06-19T08:11:09.335Z,23.20
2018-06-19T08:13:41.204Z,23.30
2018-06-19T08:16:10.726Z,23.30
2018-06-19T08:18:40.303Z,23.50
2018-06-19T08:21:09.756Z,23.50
2018-06-19T08:23:39.012Z,22.70
2018-06-19T08:26:08.272Z,23.20
2018-06-19T08:28:37.832Z,23.70
2018-06-19T08:31:07.117Z,24.00
2018-06-19T08:33:36.760Z,24.10
2018-06-19T08:36:06.129Z,23.50
2018-06-19T08:38:35.628Z,23.50
2018-06-19T08:41:05.186Z,23.60
2018-06-19T08:43:34.575Z,23.60
2018-06-19T08:46:03.879Z,24.10
2018-06-19T08:48:33.392Z,24.20
2018-06-19T08:51:02.801Z,24.30
2018-06-19T08:53:31.912Z,24.40
2018-06-19T08:56:01.203Z,24.40
2018-06-19T08:58:30.888Z,24.90
2018-06-19T09:01:00.165Z,25.00
2018-06-19T09:03:29.296Z,25.00
2018-06-19T09:05:58.599Z,25.30
2018-06-19T09:08:27.895Z,24.80
2018-06-19T09:10:57.416Z,25.30
2018-06-19T09:13:27.017Z,24.90
2018-06-19T09:15:56.571Z,25.40
2018-06-19T09:18:26.167Z,25.70
2018-06-19T09:20:55.860Z,24.30
2018-06-19T09:23:25.329Z,23.70
2018-06-19T09:25:54.842Z,24.20
2018-06-19T09:28:24.104Z,24.60
2018-06-19T09:30:53.371Z,24.70
2018-06-19T09:33:22.576Z,24.70
2018-06-19T09:35:52.330Z,24.30
2018-06-19T09:38:21.842Z,24.10
2018-06-19T09:40:51.180Z,24.50
2018-06-19T09:43:20.605Z,25.50
2018-06-19T09:45:50.132Z,25.40
2018-06-19T09:48:19.765Z,25.90
2018-06-19T09:50:49.278Z,25.40
2018-06-19T09:53:18.630Z,26.00
2018-06-19T09:55:48.002Z,25.80
2018-06-19T09:58:17.472Z,25.80
2018-06-19T10:00:46.844Z,26.00
2018-06-19T10:03:16.220Z,26.00
2018-06-19T10:05:45.943Z,25.70
2018-06-19T10:08:15.377Z,26.10
2018-06-19T10:10:44.468Z,25.90
2018-06-19T10:13:13.745Z,26.40
2018-06-19T10:15:43.210Z,26.70
2018-06-19T10:18:12.542Z,26.70
2018-06-19T10:20:41.911Z,26.80
2018-06-19T10:23:11.356Z,26.10
2018-06-19T10:25:40.664Z,26.80
2018-06-19T10:28:10.240Z,26.20
2018-06-19T10:30:39.688Z,26.20
2018-06-19T10:33:08.828Z,26.40
2018-06-19T10:35:38.258Z,26.70
2018-06-19T10:38:07.795Z,27.20
2018-06-19T10:40:36.938Z,27.20
2018-06-19T10:43:06.493Z,27.00
2018-06-19T10:45:35.901Z,26.70
2018-06-19T10:48:04.989Z,27.30
2018-06-19T10:50:34.594Z,27.50
2018-06-19T10:53:04.255Z,27.70
2018-06-19T10:55:34.862Z,27.40
2018-06-19T10:58:04.233Z,27.50
2018-06-19T11:00:33.594Z,26.40
2018-06-19T11:03:03.169Z,25.40
2018-06-19T11:05:32.495Z,25.40
2018-06-19T11:08:01.839Z,25.60
2018-06-19T11:10:30.986Z,25.70
2018-06-19T11:13:00.311Z,25.80
2018-06-19T11:15:29.654Z,25.50
2018-06-19T11:17:59.164Z,24.90
2018-06-19T11:22:57.656Z,24.40
2018-06-19T11:25:26.904Z,24.40
2018-06-19T11:27:56.652Z,24.60
2018-06-19T11:30:26.371Z,24.40
2018-06-19T11:32:55.772Z,25.30
2018-06-19T11:35:25.063Z,26.70
2018-06-19T11:37:54.604Z,26.60
2018-06-19T11:40:23.824Z,26.40
2018-06-19T11:42:53.252Z,27.10
2018-06-19T11:45:22.736Z,27.60
2018-06-19T11:47:52.228Z,26.20
2018-06-19T11:50:21.559Z,27.00
2018-06-19T11:52:50.855Z,27.30
2018-06-19T11:55:20.508Z,27.00
2018-06-19T11:57:49.839Z,25.70
2018-06-19T12:00:19.260Z,26.20
2018-06-19T12:02:48.865Z,25.90
2018-06-19T12:05:18.628Z,25.70
2018-06-19T12:07:48.385Z,25.30
2018-06-19T12:10:17.786Z,24.70
2018-06-19T12:12:46.788Z,24.60
2018-06-19T12:15:16.773Z,24.80
2018-06-19T12:17:46.092Z,25.00
2018-06-19T12:20:15.345Z,24.50
2018-06-19T12:22:44.560Z,25.10
2018-06-19T12:25:14.265Z,24.60
2018-06-19T12:27:43.468Z,24.90
2018-06-19T12:30:12.758Z,25.10
2018-06-19T12:32:42.100Z,25.10
2018-06-19T12:35:11.692Z,25.30
2018-06-19T12:37:41.261Z,25.30
2018-06-19T12:40:10.502Z,25.50
2018-06-19T12:42:40.037Z,25.80
2018-06-19T12:45:09.456Z,26.50
2018-06-19T12:47:38.832Z,27.10
2018-06-19T12:50:49.067Z,27.10
2018-06-19T12:53:29.421Z,26.80
2018-06-19T12:56:09.699Z,26.00
2018-06-19T12:58:38.860Z,26.40
2018-06-19T13:01:08.272Z,26.70
2018-06-19T13:03:48.924Z,26.00
2018-06-19T13:06:29.013Z,25.40
2018-06-19T13:08:58.309Z,25.40
2018-06-19T13:11:27.797Z,24.90
2018-06-19T13:14:08.240Z,25.70
2018-06-19T13:17:51.981Z,25.60
2018-06-19T13:20:32.426Z,25.90
2018-06-19T13:23:01.887Z,26.00
2018-06-19T13:25:31.273Z,26.60
2018-06-19T13:28:00.718Z,26.60
2018-06-19T13:30:41.018Z,27.20
2018-06-19T13:33:10.820Z,26.80
2018-06-19T13:35:40.265Z,27.00
2018-06-19T13:38:09.769Z,26.70
2018-06-19T13:41:19.116Z,26.80
2018-06-19T13:44:01.172Z,27.30
2018-06-19T13:46:30.871Z,27.10
2018-06-19T13:49:00.008Z,27.40
2018-06-19T13:51:29.271Z,26.10
2018-06-19T13:53:58.674Z,26.00
2018-06-19T13:58:37.337Z,25.70
2018-06-19T14:01:06.901Z,25.60
2018-06-19T14:03:36.309Z,25.50
2018-06-19T14:06:05.886Z,25.30
2018-06-19T14:11:02.981Z,25.60
2018-06-19T14:13:32.396Z,25.20
2018-06-19T14:16:01.764Z,25.20
2018-06-19T14:18:31.125Z,25.60
2018-06-19T14:21:00.380Z,25.50
2018-06-19T14:23:29.740Z,25.90
2018-06-19T14:25:59.042Z,26.60
2018-06-19T14:28:28.252Z,26.80
2018-06-19T14:30:58.030Z,26.30
2018-06-19T14:33:27.378Z,25.00
2018-06-19T14:35:56.923Z,24.80
2018-06-19T14:38:26.382Z,24.50
2018-06-19T14:40:56.017Z,24.50
2018-06-19T14:43:25.626Z,24.60
2018-06-19T14:45:55.113Z,24.90
2018-06-19T14:48:24.805Z,24.80
2018-06-19T14:50:54.229Z,25.50
2018-06-19T14:53:23.716Z,26.00
2018-06-19T14:55:53.062Z,25.80
2018-06-19T14:58:22.274Z,26.20
2018-06-19T15:03:20.630Z,25.90
2018-06-19T15:05:50.021Z,25.70
2018-06-19T15:08:19.145Z,25.20
2018-06-19T15:10:48.477Z,25.30
2018-06-19T15:13:18.019Z,25.50
2018-06-19T15:15:47.645Z,25.30
2018-06-19T15:18:16.844Z,25.80
2018-06-19T15:20:46.359Z,25.50
2018-06-19T15:23:15.976Z,26.10
2018-06-19T15:25:45.214Z,26.10
2018-06-19T15:28:14.642Z,25.80
2018-06-19T15:30:44.059Z,25.10
2018-06-19T15:33:13.335Z,25.70
2018-06-19T15:35:42.475Z,25.90
2018-06-19T15:38:11.805Z,25.80
2018-06-19T15:40:41.420Z,25.50
2018-06-19T15:43:10.766Z,25.10
2018-06-19T15:45:40.067Z,24.90
2018-06-19T15:48:09.532Z,24.50
2018-06-19T15:50:38.836Z,24.50
2018-06-19T15:53:08.172Z,24.40
2018-06-19T15:55:37.569Z,24.30
2018-06-19T15:58:06.995Z,24.30
2018-06-19T16:00:37.361Z,24.50
2018-06-19T16:03:06.707Z,24.60
2018-06-19T16:05:36.301Z,24.40
2018-06-19T16:08:10.745Z,24.40
2018-06-19T16:10:40.073Z,24.00
2018-06-19T16:13:09.366Z,24.10
2018-06-19T16:15:38.611Z,24.00
2018-06-19T16:18:07.927Z,23.90
2018-06-19T16:20:37.272Z,23.80
2018-06-19T16:23:06.748Z,23.80
2018-06-19T16:25:36.383Z,23.90
2018-06-19T16:28:05.671Z,23.90
2018-06-19T16:30:35.233Z,23.90
2018-06-19T16:33:04.544Z,23.90
2018-06-19T16:35:34.017Z,23.90
2018-06-19T16:38:03.468Z,23.90
2018-06-19T16:40:33.049Z,23.90
2018-06-19T16:43:02.551Z,23.90
2018-06-19T16:45:32.115Z,23.90
2018-06-19T16:48:01.764Z,23.60
2018-06-19T16:50:31.214Z,23.60
2018-06-19T16:53:01.018Z,23.80
2018-06-19T16:55:30.287Z,23.70
2018-06-19T16:57:59.395Z,23.70
2018-06-19T17:00:29.151Z,23.60
2018-06-19T17:02:58.547Z,23.70
2018-06-19T17:05:28.151Z,23.70
2018-06-19T17:07:57.582Z,23.70
2018-06-19T17:10:27.024Z,23.70
2018-06-19T17:12:56.278Z,23.70
2018-06-19T17:15:25.699Z,23.60
2018-06-19T17:17:55.206Z,23.50
2018-06-19T17:20:24.671Z,23.50
2018-06-19T17:22:54.511Z,23.40
2018-06-19T17:25:24.117Z,23.40
2018-06-19T17:27:53.378Z,23.30
2018-06-19T17:30:22.833Z,23.30
2018-06-19T17:32:52.264Z,23.20
2018-06-19T17:35:21.808Z,23.30
2018-06-19T17:37:51.422Z,23.20
2018-06-19T17:40:20.867Z,23.10
2018-06-19T17:42:50.390Z,23.00
2018-06-19T17:45:19.604Z,22.80
2018-06-19T17:47:48.967Z,22.70
2018-06-19T17:50:18.342Z,22.70
2018-06-19T17:52:47.878Z,22.50
2018-06-19T17:55:17.318Z,22.50
2018-06-19T17:57:46.497Z,22.40
2018-06-19T18:00:15.985Z,22.30
2018-06-19T18:02:45.606Z,22.30
2018-06-19T18:05:15.302Z,22.40
2018-06-19T18:07:44.832Z,22.30
2018-06-19T18:10:14.247Z,22.10
2018-06-19T18:12:43.626Z,21.90
2018-06-19T18:15:13.096Z,21.80
2018-06-19T18:17:42.183Z,21.90
2018-06-19T18:20:11.511Z,21.90
2018-06-19T18:22:41.228Z,21.90
2018-06-19T18:25:11.056Z,21.90
2018-06-19T18:27:40.595Z,21.80
2018-06-19T18:30:10.586Z,21.80
2018-06-19T18:32:40.030Z,21.80
2018-06-19T18:35:09.800Z,21.60
2018-06-19T18:37:39.145Z,21.50
2018-06-19T18:40:08.355Z,21.40
2018-06-19T18:42:38.027Z,21.10
2018-06-19T18:45:07.585Z,20.80
2018-06-19T18:47:37.662Z,20.60
2018-06-19T18:50:07.363Z,20.30
2018-06-19T18:52:37.361Z,20.20
2018-06-19T18:55:07.253Z,20.00
2018-06-19T18:57:36.994Z,19.90
2018-06-19T19:00:06.382Z,19.80
2018-06-19T19:02:35.469Z,19.50
2018-06-19T19:05:05.148Z,19.30
2018-06-19T19:07:34.881Z,19.20
2018-06-19T19:10:09.685Z,19.00
2018-06-19T19:12:39.152Z,18.90
2018-06-19T19:17:16.543Z,18.70
2018-06-19T19:22:14.889Z,18.10
2018-06-19T19:24:44.023Z,17.90
2018-06-19T19:27:18.785Z,17.90
2018-06-19T19:29:50.262Z,18.00
2018-06-19T19:32:20.754Z,17.90
2018-06-19T19:34:50.067Z,17.70
2018-06-19T19:37:25.047Z,17.70
2018-06-19T19:39:54.439Z,17.70
2018-06-19T19:42:24.227Z,17.50
2018-06-19T19:44:53.491Z,17.30
2018-06-19T19:47:28.021Z,17.30
2018-06-19T19:49:57.430Z,17.40
2018-06-19T19:52:26.974Z,17.30
2018-06-19T19:54:56.624Z,17.30
2018-06-19T19:57:31.254Z,17.20
2018-06-19T20:00:01.044Z,17.20
2018-06-19T20:02:30.761Z,17.20
2018-06-19T20:04:59.928Z,17.00
2018-06-19T20:07:29.442Z,17.00
2018-06-19T20:09:59.107Z,16.90
2018-06-19T20:12:28.838Z,16.80
2018-06-19T20:14:58.300Z,16.70
2018-06-19T20:17:27.385Z,16.60
2018-06-19T20:19:57.065Z,16.50
2018-06-19T20:22:26.426Z,16.30
2018-06-19T20:24:55.917Z,16.00
2018-06-19T20:27:25.054Z,15.90
2018-06-19T20:29:54.330Z,15.70
2018-06-19T20:32:24.041Z,15.60
2018-06-19T20:34:53.431Z,15.70
2018-06-19T20:37:23.068Z,15.80
2018-06-19T20:39:52.544Z,15.70
2018-06-19T20:42:22.019Z,15.60
2018-06-19T20:44:51.196Z,15.60
2018-06-19T20:47:21.019Z,15.50
2018-06-19T20:49:50.210Z,15.40
2018-06-19T20:52:19.935Z,15.40
2018-06-19T20:54:49.549Z,15.50
2018-06-19T20:57:19.030Z,15.50
2018-06-19T20:59:48.344Z,15.50
2018-06-19T21:02:17.686Z,15.40
2018-06-19T21:04:47.027Z,15.30
2018-06-19T21:07:16.653Z,15.00
2018-06-19T21:09:45.998Z,14.80
2018-06-19T21:12:15.288Z,14.80
2018-06-19T21:14:44.720Z,14.80
2018-06-19T21:17:14.345Z,14.80
2018-06-19T21:19:43.691Z,14.80
2018-06-19T21:22:12.924Z,14.90
2018-06-19T21:24:42.146Z,15.00
2018-06-19T21:27:11.380Z,15.00
2018-06-19T21:29:40.642Z,15.10
2018-06-19T21:32:09.847Z,15.10
2018-06-19T21:34:39.354Z,15.20
2018-06-19T21:37:09.119Z,15.10
2018-06-19T21:39:38.425Z,15.00
2018-06-19T21:42:07.824Z,14.90
2018-06-19T21:44:36.982Z,14.70
2018-06-19T21:47:06.698Z,14.60
2018-06-19T21:49:36.119Z,14.60
2018-06-19T21:52:05.885Z,14.50
2018-06-19T21:54:34.959Z,14.40
2018-06-19T21:57:04.844Z,14.30
2018-06-19T21:59:34.155Z,14.20
2018-06-19T22:02:03.842Z,14.10
2018-06-19T22:04:33.167Z,14.20
2018-06-19T22:07:02.516Z,14.20
2018-06-19T22:09:32.170Z,14.10
2018-06-19T22:12:01.298Z,14.00
2018-06-19T22:14:31.620Z,14.00
2018-06-19T22:17:01.116Z,13.90
2018-06-19T22:19:30.466Z,13.90
2018-06-19T22:21:59.592Z,13.80
2018-06-19T22:24:28.987Z,13.80
2018-06-19T22:26:58.261Z,13.70
2018-06-19T22:29:27.679Z,13.70
2018-06-19T22:31:57.070Z,13.70
2018-06-19T22:34:26.250Z,13.70
2018-06-19T22:36:55.696Z,13.70
2018-06-19T22:39:25.412Z,13.60
2018-06-19T22:41:54.910Z,13.60
2018-06-19T22:44:24.184Z,13.60
2018-06-19T22:46:53.559Z,13.60
2018-06-19T22:49:23.275Z,13.50
2018-06-19T22:51:52.818Z,13.50
2018-06-19T22:54:21.904Z,13.50
2018-06-19T22:56:51.680Z,13.50
2018-06-19T22:59:20.799Z,13.40
2018-06-19T23:01:50.741Z,13.30
2018-06-19T23:04:20.198Z,13.30
2018-06-19T23:06:49.753Z,13.30
2018-06-19T23:09:18.998Z,13.20
2018-06-19T23:11:48.357Z,13.20
2018-06-19T23:14:18.220Z,13.00
2018-06-19T23:16:47.520Z,12.90
2018-06-19T23:19:16.900Z,13.00
2018-06-19T23:21:46.375Z,13.00
2018-06-19T23:24:15.481Z,13.00
2018-06-19T23:26:45.101Z,13.00
2018-06-19T23:29:14.417Z,13.00
2018-06-19T23:31:43.563Z,13.00
2018-06-19T23:34:13.260Z,13.00
2018-06-19T23:36:42.517Z,13.00
2018-06-19T23:39:11.937Z,12.90
2018-06-19T23:41:41.255Z,12.70
2018-06-19T23:44:10.796Z,12.80
2018-06-19T23:46:40.044Z,12.70
2018-06-19T23:49:09.646Z,12.70
2018-06-19T23:51:38.929Z,12.70
2018-06-19T23:54:08.697Z,12.70
2018-06-19T23:56:37.857Z,12.70
2018-06-19T23:59:07.246Z,12.50
